sensor_id;sensor_type;location;lat;lon;timestamp;pressure;altitude;pressure_sealevel;temperature;humidity
25759;BME280;13604;52.496;13.456;2023-07-29T00:00:17;100407.09;;;16.57;100.00
25759;BME280;13604;52.496;13.456;2023-07-29T00:02:44;100390.16;;;16.40;100.00
25759;BME280;13604;52.496;13.456;2023-07-29T00:05:10;100383.09;;;16.34;100.00
25759;BME280;13604;52.496;13.456;2023-07-29T00:07:35;100369.72;;;16.22;100.00
25759;BME280;13604;52.496;13.456;2023-07-29T00:10:00;100390.91;;;16.31;100.00
25759;BME280;13604;52.496;13.456;2023-07-29T00:12:26;100399.66;;;16.28;100.00
25759;BME280;13604;52.496;13.456;2023-07-29T00:14:51;100388.00;;;16.12;100.00
25759;BME280;13604;52.496;13.456;2023-07-29T00:17:16;100362.41;;;16.00;100.00
25759;BME280;13604;52.496;13.456;2023-07-29T00:19:42;100384.53;;;16.16;100.00
25759;BME280;13604;52.496;13.456;2023-07-29T00:22:07;100378.31;;;16.10;100.00
25759;BME280;13604;52.496;13.456;2023-07-29T00:24:33;100402.19;;;16.24;100.00
25759;BME280;13604;52.496;13.456;2023-07-29T00:26:59;100398.63;;;16.20;100.00
25759;BME280;13604;52.496;13.456;2023-07-29T00:29:24;100393.31;;;16.17;100.00
25759;BME280;13604;52.496;13.456;2023-07-29T00:31:49;100402.75;;;16.06;100.00
25759;BME280;13604;52.496;13.456;2023-07-29T00:34:14;100375.56;;;16.02;100.00
25759;BME280;13604;52.496;13.456;2023-07-29T00:36:44;100389.66;;;16.07;100.00
25759;BME280;13604;52.496;13.456;2023-07-29T00:39:09;100357.53;;;15.75;100.00
25759;BME280;13604;52.496;13.456;2023-07-29T00:41:35;100404.38;;;15.97;100.00
25759;BME280;13604;52.496;13.456;2023-07-29T00:44:00;100375.03;;;15.74;100.00
25759;BME280;13604;52.496;13.456;2023-07-29T00:46:27;100395.59;;;15.95;100.00
25759;BME280;13604;52.496;13.456;2023-07-29T00:48:53;100371.44;;;15.68;100.00
25759;BME280;13604;52.496;13.456;2023-07-29T00:51:19;100401.63;;;15.91;100.00
25759;BME280;13604;52.496;13.456;2023-07-29T00:53:44;100370.81;;;15.81;100.00
25759;BME280;13604;52.496;13.456;2023-07-29T00:56:10;100385.09;;;15.95;100.00
25759;BME280;13604;52.496;13.456;2023-07-29T00:58:35;100361.91;;;15.74;100.00
25759;BME280;13604;52.496;13.456;2023-07-29T01:01:00;100391.09;;;15.90;100.00
25759;BME280;13604;52.496;13.456;2023-07-29T01:03:26;100369.00;;;15.78;100.00
25759;BME280;13604;52.496;13.456;2023-07-29T01:06:15;100384.03;;;15.86;100.00
25759;BME280;13604;52.496;13.456;2023-07-29T01:11:35;100383.94;;;15.81;100.00
25759;BME280;13604;52.496;13.456;2023-07-29T01:14:13;100342.44;;;15.61;100.00
25759;BME280;13604;52.496;13.456;2023-07-29T01:16:42;100385.53;;;15.74;100.00
25759;BME280;13604;52.496;13.456;2023-07-29T01:19:17;100322.91;;;15.47;100.00
25759;BME280;13604;52.496;13.456;2023-07-29T01:21:50;100360.06;;;15.69;100.00
25759;BME280;13604;52.496;13.456;2023-07-29T01:24:16;100337.91;;;15.53;100.00
25759;BME280;13604;52.496;13.456;2023-07-29T01:26:41;100328.19;;;15.49;100.00
25759;BME280;13604;52.496;13.456;2023-07-29T01:29:07;100256.44;;;14.99;100.00
25759;BME280;13604;52.496;13.456;2023-07-29T01:31:43;100341.28;;;15.47;100.00
25759;BME280;13604;52.496;13.456;2023-07-29T01:34:26;100349.34;;;15.56;100.00
25759;BME280;13604;52.496;13.456;2023-07-29T01:36:57;100244.97;;;14.93;100.00
25759;BME280;13604;52.496;13.456;2023-07-29T01:39:23;100349.25;;;15.52;100.00
25759;BME280;13604;52.496;13.456;2023-07-29T01:41:50;100331.47;;;15.37;100.00
25759;BME280;13604;52.496;13.456;2023-07-29T01:44:16;100349.09;;;15.44;100.00
25759;BME280;13604;52.496;13.456;2023-07-29T01:46:44;100337.69;;;15.42;100.00
25759;BME280;13604;52.496;13.456;2023-07-29T01:49:09;100342.16;;;15.48;100.00
25759;BME280;13604;52.496;13.456;2023-07-29T01:51:34;100345.47;;;15.37;100.00
25759;BME280;13604;52.496;13.456;2023-07-29T01:53:59;100364.09;;;15.50;100.00
25759;BME280;13604;52.496;13.456;2023-07-29T01:56:25;100342.75;;;15.33;100.00
25759;BME280;13604;52.496;13.456;2023-07-29T01:58:50;100315.41;;;15.18;100.00
25759;BME280;13604;52.496;13.456;2023-07-29T02:01:15;100341.81;;;15.29;100.00
25759;BME280;13604;52.496;13.456;2023-07-29T02:03:41;100349.63;;;15.26;100.00
25759;BME280;13604;52.496;13.456;2023-07-29T02:06:06;100369.09;;;15.37;100.00
25759;BME280;13604;52.496;13.456;2023-07-29T02:08:31;100336.44;;;15.21;100.00
25759;BME280;13604;52.496;13.456;2023-07-29T02:10:57;100361.09;;;15.31;100.00
25759;BME280;13604;52.496;13.456;2023-07-29T02:13:22;100350.31;;;15.16;100.00
25759;BME280;13604;52.496;13.456;2023-07-29T02:15:47;100350.41;;;15.20;100.00
25759;BME280;13604;52.496;13.456;2023-07-29T02:18:13;100368.97;;;15.30;100.00
25759;BME280;13604;52.496;13.456;2023-07-29T02:20:38;100350.19;;;15.11;100.00
25759;BME280;13604;52.496;13.456;2023-07-29T02:23:03;100344.09;;;15.11;100.00
25759;BME280;13604;52.496;13.456;2023-07-29T02:25:29;100344.84;;;15.05;100.00
25759;BME280;13604;52.496;13.456;2023-07-29T02:27:55;100352.75;;;15.08;100.00
25759;BME280;13604;52.496;13.456;2023-07-29T02:30:20;100365.22;;;15.18;100.00
25759;BME280;13604;52.496;13.456;2023-07-29T02:32:46;100347.44;;;15.03;100.00
25759;BME280;13604;52.496;13.456;2023-07-29T02:35:12;100366.88;;;15.13;100.00
25759;BME280;13604;52.496;13.456;2023-07-29T02:37:37;100361.44;;;15.04;100.00
25759;BME280;13604;52.496;13.456;2023-07-29T02:40:03;100364.03;;;15.02;100.00
25759;BME280;13604;52.496;13.456;2023-07-29T02:42:29;100354.22;;;14.94;100.00
25759;BME280;13604;52.496;13.456;2023-07-29T02:44:54;100362.34;;;15.06;100.00
25759;BME280;13604;52.496;13.456;2023-07-29T02:47:19;100366.72;;;15.05;100.00
25759;BME280;13604;52.496;13.456;2023-07-29T02:49:44;100304.88;;;14.74;100.00
25759;BME280;13604;52.496;13.456;2023-07-29T02:52:10;100365.75;;;15.02;100.00
25759;BME280;13604;52.496;13.456;2023-07-29T02:54:35;100327.78;;;14.83;100.00
25759;BME280;13604;52.496;13.456;2023-07-29T02:57:00;100332.16;;;14.82;100.00
25759;BME280;13604;52.496;13.456;2023-07-29T02:59:26;100370.09;;;15.01;100.00
25759;BME280;13604;52.496;13.456;2023-07-29T03:01:52;100370.09;;;15.01;100.00
25759;BME280;13604;52.496;13.456;2023-07-29T03:04:18;100359.50;;;14.95;100.00
25759;BME280;13604;52.496;13.456;2023-07-29T03:06:43;100363.16;;;15.02;100.00
25759;BME280;13604;52.496;13.456;2023-07-29T03:09:09;100357.75;;;14.96;100.00
25759;BME280;13604;52.496;13.456;2023-07-29T03:11:34;100337.47;;;14.85;100.00
25759;BME280;13604;52.496;13.456;2023-07-29T03:14:00;100346.38;;;14.94;100.00
25759;BME280;13604;52.496;13.456;2023-07-29T03:16:25;100363.09;;;15.00;100.00
25759;BME280;13604;52.496;13.456;2023-07-29T03:18:51;100369.22;;;15.01;100.00
25759;BME280;13604;52.496;13.456;2023-07-29T03:21:16;100368.41;;;15.03;100.00
25759;BME280;13604;52.496;13.456;2023-07-29T03:23:42;100328.69;;;14.85;100.00
25759;BME280;13604;52.496;13.456;2023-07-29T03:26:07;100348.28;;;15.02;100.00
25759;BME280;13604;52.496;13.456;2023-07-29T03:28:42;100348.19;;;14.98;100.00
25759;BME280;13604;52.496;13.456;2023-07-29T03:31:08;100352.69;;;15.03;100.00
25759;BME280;13604;52.496;13.456;2023-07-29T03:33:34;100356.09;;;14.99;100.00
25759;BME280;13604;52.496;13.456;2023-07-29T03:35:59;100332.06;;;14.79;100.00
25759;BME280;13604;52.496;13.456;2023-07-29T03:38:24;100332.97;;;14.81;100.00
25759;BME280;13604;52.496;13.456;2023-07-29T03:40:50;100355.25;;;15.00;100.00
25759;BME280;13604;52.496;13.456;2023-07-29T03:43:15;100325.13;;;14.81;100.00
25759;BME280;13604;52.496;13.456;2023-07-29T03:45:41;100317.94;;;14.72;100.00
25759;BME280;13604;52.496;13.456;2023-07-29T03:48:06;100343.56;;;14.86;100.00
25759;BME280;13604;52.496;13.456;2023-07-29T03:50:33;100315.28;;;14.71;100.00
25759;BME280;13604;52.496;13.456;2023-07-29T03:52:59;100344.50;;;14.89;100.00
25759;BME280;13604;52.496;13.456;2023-07-29T03:55:25;100329.66;;;14.90;100.00
25759;BME280;13604;52.496;13.456;2023-07-29T03:57:50;100342.00;;;14.94;100.00
25759;BME280;13604;52.496;13.456;2023-07-29T04:00:15;100306.59;;;14.72;100.00
25759;BME280;13604;52.496;13.456;2023-07-29T04:02:42;100319.06;;;14.84;100.00
25759;BME280;13604;52.496;13.456;2023-07-29T04:05:07;100343.06;;;15.04;100.00
25759;BME280;13604;52.496;13.456;2023-07-29T04:07:35;100333.50;;;15.06;100.00
25759;BME280;13604;52.496;13.456;2023-07-29T04:10:02;100347.88;;;15.25;100.00
25759;BME280;13604;52.496;13.456;2023-07-29T04:12:27;100319.56;;;15.08;100.00
25759;BME280;13604;52.496;13.456;2023-07-29T04:14:52;100348.00;;;15.33;100.00
25759;BME280;13604;52.496;13.456;2023-07-29T04:17:18;100311.00;;;15.17;100.00
25759;BME280;13604;52.496;13.456;2023-07-29T04:19:43;100319.13;;;15.33;100.00
25759;BME280;13604;52.496;13.456;2023-07-29T04:22:08;100327.34;;;15.50;100.00
25759;BME280;13604;52.496;13.456;2023-07-29T04:24:34;100315.09;;;15.50;100.00
25759;BME280;13604;52.496;13.456;2023-07-29T04:26:59;100294.84;;;15.41;100.00
25759;BME280;13604;52.496;13.456;2023-07-29T04:29:25;100340.91;;;15.74;100.00
25759;BME280;13604;52.496;13.456;2023-07-29T04:31:50;100333.25;;;15.85;100.00
25759;BME280;13604;52.496;13.456;2023-07-29T04:34:15;100317.56;;;15.90;100.00
25759;BME280;13604;52.496;13.456;2023-07-29T04:36:41;100314.88;;;15.87;100.00
25759;BME280;13604;52.496;13.456;2023-07-29T04:39:06;100307.00;;;15.87;100.00
25759;BME280;13604;52.496;13.456;2023-07-29T04:41:31;100337.94;;;16.05;100.00
25759;BME280;13604;52.496;13.456;2023-07-29T04:43:57;100320.03;;;15.79;100.00
25759;BME280;13604;52.496;13.456;2023-07-29T04:46:22;100349.16;;;15.94;100.00
25759;BME280;13604;52.496;13.456;2023-07-29T04:48:47;100327.72;;;15.71;100.00
25759;BME280;13604;52.496;13.456;2023-07-29T04:51:12;100335.78;;;15.79;100.00
25759;BME280;13604;52.496;13.456;2023-07-29T04:53:38;100286.50;;;15.65;100.00
25759;BME280;13604;52.496;13.456;2023-07-29T04:56:03;100307.91;;;15.89;100.00
25759;BME280;13604;52.496;13.456;2023-07-29T04:58:29;100317.91;;;16.11;100.00
25759;BME280;13604;52.496;13.456;2023-07-29T05:00:55;100323.38;;;16.24;100.00
25759;BME280;13604;52.496;13.456;2023-07-29T05:03:20;100285.72;;;16.25;100.00
25759;BME280;13604;52.496;13.456;2023-07-29T05:05:46;100333.66;;;16.68;100.00
25759;BME280;13604;52.496;13.456;2023-07-29T05:08:11;100302.78;;;16.56;100.00
25759;BME280;13604;52.496;13.456;2023-07-29T05:10:36;100338.00;;;16.67;100.00
25759;BME280;13604;52.496;13.456;2023-07-29T05:13:02;100337.09;;;16.64;100.00
25759;BME280;13604;52.496;13.456;2023-07-29T05:15:27;100294.56;;;16.31;100.00
25759;BME280;13604;52.496;13.456;2023-07-29T05:17:52;100322.06;;;16.53;100.00
25759;BME280;13604;52.496;13.456;2023-07-29T05:20:18;100308.69;;;16.38;100.00
25759;BME280;13604;52.496;13.456;2023-07-29T05:22:43;100323.91;;;16.62;100.00
25759;BME280;13604;52.496;13.456;2023-07-29T05:25:08;100301.25;;;16.70;100.00
25759;BME280;13604;52.496;13.456;2023-07-29T05:27:34;100298.06;;;16.93;100.00
25759;BME280;13604;52.496;13.456;2023-07-29T05:29:59;100306.19;;;17.13;100.00
25759;BME280;13604;52.496;13.456;2023-07-29T05:32:25;100321.44;;;17.46;100.00
25759;BME280;13604;52.496;13.456;2023-07-29T05:34:50;100328.72;;;17.71;100.00
25759;BME280;13604;52.496;13.456;2023-07-29T05:37:15;100298.06;;;17.80;100.00
25759;BME280;13604;52.496;13.456;2023-07-29T05:39:41;100326.34;;;17.97;100.00
25759;BME280;13604;52.496;13.456;2023-07-29T05:42:06;100314.75;;;17.82;100.00
25759;BME280;13604;52.496;13.456;2023-07-29T05:44:31;100317.22;;;17.62;100.00
25759;BME280;13604;52.496;13.456;2023-07-29T05:46:57;100292.50;;;17.48;100.00
25759;BME280;13604;52.496;13.456;2023-07-29T05:49:22;100322.78;;;17.92;100.00
25759;BME280;13604;52.496;13.456;2023-07-29T05:51:48;100344.91;;;18.14;100.00
25759;BME280;13604;52.496;13.456;2023-07-29T05:54:13;100341.47;;;18.19;100.00
25759;BME280;13604;52.496;13.456;2023-07-29T05:56:39;100301.91;;;18.16;100.00
25759;BME280;13604;52.496;13.456;2023-07-29T05:59:04;100322.25;;;18.37;100.00
25759;BME280;13604;52.496;13.456;2023-07-29T06:01:29;100231.59;;;18.12;100.00
25759;BME280;13604;52.496;13.456;2023-07-29T06:03:54;100307.53;;;18.73;100.00
25759;BME280;13604;52.496;13.456;2023-07-29T06:06:20;100326.09;;;18.92;100.00
25759;BME280;13604;52.496;13.456;2023-07-29T06:08:45;100293.53;;;18.93;100.00
25759;BME280;13604;52.496;13.456;2023-07-29T06:11:10;100281.31;;;19.13;100.00
25759;BME280;13604;52.496;13.456;2023-07-29T06:13:36;100278.69;;;19.30;100.00
25759;BME280;13604;52.496;13.456;2023-07-29T06:16:01;100299.78;;;19.26;100.00
25759;BME280;13604;52.496;13.456;2023-07-29T06:18:27;100295.41;;;19.36;100.00
25759;BME280;13604;52.496;13.456;2023-07-29T06:20:52;100292.78;;;19.36;100.00
25759;BME280;13604;52.496;13.456;2023-07-29T06:23:17;100295.34;;;19.03;100.00
25759;BME280;13604;52.496;13.456;2023-07-29T06:25:43;100273.31;;;18.90;100.00
25759;BME280;13604;52.496;13.456;2023-07-29T06:28:11;100294.47;;;19.07;100.00
25759;BME280;13604;52.496;13.456;2023-07-29T06:30:36;100270.75;;;19.12;100.00
25759;BME280;13604;52.496;13.456;2023-07-29T06:33:02;100269.00;;;19.34;100.00
25759;BME280;13604;52.496;13.456;2023-07-29T06:35:28;100264.66;;;19.55;100.00
25759;BME280;13604;52.496;13.456;2023-07-29T06:37:53;100298.16;;;19.88;100.00
25759;BME280;13604;52.496;13.456;2023-07-29T06:40:19;100284.94;;;19.88;100.00
25759;BME280;13604;52.496;13.456;2023-07-29T06:42:44;100286.72;;;19.84;100.00
25759;BME280;13604;52.496;13.456;2023-07-29T06:45:09;100302.56;;;20.11;100.00
25759;BME280;13604;52.496;13.456;2023-07-29T06:47:35;100286.69;;;20.18;100.00
25759;BME280;13604;52.496;13.456;2023-07-29T06:50:00;100310.41;;;20.49;100.00
25759;BME280;13604;52.496;13.456;2023-07-29T06:52:26;100282.22;;;20.47;100.00
25759;BME280;13604;52.496;13.456;2023-07-29T06:54:51;100286.53;;;20.78;100.00
25759;BME280;13604;52.496;13.456;2023-07-29T06:57:16;100304.09;;;21.03;100.00
25759;BME280;13604;52.496;13.456;2023-07-29T06:59:42;100309.22;;;21.33;99.54
25759;BME280;13604;52.496;13.456;2023-07-29T07:02:07;100287.13;;;21.38;96.59
25759;BME280;13604;52.496;13.456;2023-07-29T07:06:57;100304.72;;;21.49;nan
25759;BME280;13604;52.496;13.456;2023-07-29T07:09:23;100305.28;;;21.95;nan
25759;BME280;13604;52.496;13.456;2023-07-29T07:11:48;100294.56;;;22.05;nan
25759;BME280;13604;52.496;13.456;2023-07-29T07:14:13;100260.94;;;22.11;nan
25759;BME280;13604;52.496;13.456;2023-07-29T07:16:39;100309.50;;;22.16;nan
25759;BME280;13604;52.496;13.456;2023-07-29T07:19:04;100314.91;;;22.05;nan
25759;BME280;13604;52.496;13.456;2023-07-29T07:21:29;100323.66;;;22.15;nan
25759;BME280;13604;52.496;13.456;2023-07-29T07:23:55;100326.06;;;22.42;nan
25759;BME280;13604;52.496;13.456;2023-07-29T07:26:20;100311.69;;;22.65;nan
25759;BME280;13604;52.496;13.456;2023-07-29T07:28:45;100307.00;;;22.87;nan
25759;BME280;13604;52.496;13.456;2023-07-29T07:31:11;100302.38;;;23.03;nan
25759;BME280;13604;52.496;13.456;2023-07-29T07:33:36;100297.94;;;23.07;nan
25759;BME280;13604;52.496;13.456;2023-07-29T07:36:01;100320.94;;;23.06;nan
25759;BME280;13604;52.496;13.456;2023-07-29T07:38:27;100288.31;;;22.95;nan
25759;BME280;13604;52.496;13.456;2023-07-29T07:40:54;100289.09;;;23.03;nan
25759;BME280;13604;52.496;13.456;2023-07-29T07:43:20;100309.97;;;23.34;nan
25759;BME280;13604;52.496;13.456;2023-07-29T07:45:45;100299.41;;;23.29;nan
25759;BME280;13604;52.496;13.456;2023-07-29T07:48:10;100307.84;;;23.56;nan
25759;BME280;13604;52.496;13.456;2023-07-29T07:50:38;100301.84;;;23.43;nan
25759;BME280;13604;52.496;13.456;2023-07-29T07:53:03;100266.06;;;23.66;nan
25759;BME280;13604;52.496;13.456;2023-07-29T07:55:28;100308.25;;;24.39;nan
25759;BME280;13604;52.496;13.456;2023-07-29T07:57:53;100301.59;;;24.65;nan
25759;BME280;13604;52.496;13.456;2023-07-29T08:02:35;100271.47;;;25.03;73.73
25759;BME280;13604;52.496;13.456;2023-07-29T08:05:00;100289.75;;;25.22;72.23
25759;BME280;13604;52.496;13.456;2023-07-29T08:07:26;100276.22;;;24.90;72.41
25759;BME280;13604;52.496;13.456;2023-07-29T08:09:51;100303.22;;;24.70;73.02
25759;BME280;13604;52.496;13.456;2023-07-29T08:12:16;100274.66;;;24.33;74.24
25759;BME280;13604;52.496;13.456;2023-07-29T08:14:42;100295.91;;;24.36;73.18
25759;BME280;13604;52.496;13.456;2023-07-29T08:17:07;100289.75;;;24.79;73.38
25759;BME280;13604;52.496;13.456;2023-07-29T08:19:32;100274.75;;;25.16;70.96
25759;BME280;13604;52.496;13.456;2023-07-29T08:22:02;100270.78;;;25.35;68.90
25759;BME280;13604;52.496;13.456;2023-07-29T08:24:28;100288.66;;;25.69;68.66
25759;BME280;13604;52.496;13.456;2023-07-29T08:26:53;100261.00;;;24.95;69.94
25759;BME280;13604;52.496;13.456;2023-07-29T08:29:18;100285.16;;;24.86;71.11
25759;BME280;13604;52.496;13.456;2023-07-29T08:31:43;100278.63;;;24.59;71.85
25759;BME280;13604;52.496;13.456;2023-07-29T08:34:09;100273.00;;;24.74;70.92
25759;BME280;13604;52.496;13.456;2023-07-29T08:36:34;100258.94;;;24.19;72.92
25759;BME280;13604;52.496;13.456;2023-07-29T08:39:00;100244.16;;;24.03;73.53
25759;BME280;13604;52.496;13.456;2023-07-29T08:41:27;100269.78;;;24.57;72.06
25759;BME280;13604;52.496;13.456;2023-07-29T08:44:10;100269.47;;;25.53;69.20
25759;BME280;13604;52.496;13.456;2023-07-29T08:46:38;100246.91;;;26.03;66.50
25759;BME280;13604;52.496;13.456;2023-07-29T08:49:04;100263.19;;;26.58;65.08
25759;BME280;13604;52.496;13.456;2023-07-29T08:51:31;100256.75;;;26.01;65.13
25759;BME280;13604;52.496;13.456;2023-07-29T08:53:58;100249.00;;;25.54;66.78
25759;BME280;13604;52.496;13.456;2023-07-29T08:56:24;100249.78;;;25.59;67.08
25759;BME280;13604;52.496;13.456;2023-07-29T08:58:50;100276.22;;;25.68;67.04
25759;BME280;13604;52.496;13.456;2023-07-29T09:01:15;100261.63;;;25.83;68.50
25759;BME280;13604;52.496;13.456;2023-07-29T09:03:41;100281.34;;;26.47;65.02
25759;BME280;13604;52.496;13.456;2023-07-29T09:06:07;100246.09;;;27.25;63.40
25759;BME280;13604;52.496;13.456;2023-07-29T09:08:33;100231.19;;;27.46;59.35
25759;BME280;13604;52.496;13.456;2023-07-29T09:10:59;100271.44;;;28.46;57.66
25759;BME280;13604;52.496;13.456;2023-07-29T09:13:24;100259.19;;;28.14;57.59
25759;BME280;13604;52.496;13.456;2023-07-29T09:15:54;100260.31;;;27.55;59.33
25759;BME280;13604;52.496;13.456;2023-07-29T09:18:19;100254.53;;;27.67;59.36
25759;BME280;13604;52.496;13.456;2023-07-29T09:20:49;100260.19;;;28.37;57.12
25759;BME280;13604;52.496;13.456;2023-07-29T09:23:15;100251.88;;;28.44;56.91
25759;BME280;13604;52.496;13.456;2023-07-29T09:25:40;100226.13;;;27.90;59.20
25759;BME280;13604;52.496;13.456;2023-07-29T09:28:11;100231.31;;;27.41;59.44
25759;BME280;13604;52.496;13.456;2023-07-29T09:30:41;100217.03;;;27.14;60.34
25759;BME280;13604;52.496;13.456;2023-07-29T09:33:08;100225.78;;;27.19;61.26
25759;BME280;13604;52.496;13.456;2023-07-29T09:35:35;100241.03;;;26.86;64.38
25759;BME280;13604;52.496;13.456;2023-07-29T09:38:02;100240.81;;;26.93;61.64
25759;BME280;13604;52.496;13.456;2023-07-29T09:40:27;100231.03;;;27.22;60.70
25759;BME280;13604;52.496;13.456;2023-07-29T09:42:54;100220.09;;;28.10;58.43
25759;BME280;13604;52.496;13.456;2023-07-29T09:45:24;100231.88;;;29.02;55.23
25759;BME280;13604;52.496;13.456;2023-07-29T09:47:51;100224.91;;;29.64;54.04
25759;BME280;13604;52.496;13.456;2023-07-29T09:50:17;100228.09;;;29.30;52.42
25759;BME280;13604;52.496;13.456;2023-07-29T09:52:43;100226.69;;;28.25;55.72
25759;BME280;13604;52.496;13.456;2023-07-29T09:55:12;100219.59;;;27.17;59.06
25759;BME280;13604;52.496;13.456;2023-07-29T09:57:40;100204.88;;;26.44;62.07
25759;BME280;13604;52.496;13.456;2023-07-29T10:00:05;100194.69;;;26.27;63.23
25759;BME280;13604;52.496;13.456;2023-07-29T10:02:37;100198.38;;;27.12;60.18
25759;BME280;13604;52.496;13.456;2023-07-29T10:05:03;100207.88;;;28.03;58.67
25759;BME280;13604;52.496;13.456;2023-07-29T10:07:29;100202.16;;;28.12;56.75
25759;BME280;13604;52.496;13.456;2023-07-29T10:09:55;100197.75;;;28.84;54.71
25759;BME280;13604;52.496;13.456;2023-07-29T10:14:47;100198.31;;;28.92;nan
25759;BME280;13604;52.496;13.456;2023-07-29T10:17:15;100192.09;;;28.44;nan
25759;BME280;13604;52.496;13.456;2023-07-29T10:19:41;100179.84;;;28.62;nan
25759;BME280;13604;52.496;13.456;2023-07-29T10:22:08;100197.88;;;28.80;nan
25759;BME280;13604;52.496;13.456;2023-07-29T10:24:34;100201.44;;;28.32;nan
25759;BME280;13604;52.496;13.456;2023-07-29T10:27:01;100192.41;;;27.84;nan
25759;BME280;13604;52.496;13.456;2023-07-29T10:29:38;100173.94;;;26.96;nan
25759;BME280;13604;52.496;13.456;2023-07-29T10:32:07;100175.53;;;26.74;nan
25759;BME280;13604;52.496;13.456;2023-07-29T10:34:35;100177.78;;;26.88;nan
25759;BME280;13604;52.496;13.456;2023-07-29T10:37:01;100165.13;;;26.65;nan
25759;BME280;13604;52.496;13.456;2023-07-29T10:39:27;100169.09;;;26.81;nan
25759;BME280;13604;52.496;13.456;2023-07-29T10:42:03;100145.50;;;26.66;nan
25759;BME280;13604;52.496;13.456;2023-07-29T10:47:32;100153.63;;;26.00;nan
25759;BME280;13604;52.496;13.456;2023-07-29T10:49:59;100143.03;;;25.97;nan
25759;BME280;13604;52.496;13.456;2023-07-29T10:52:39;100129.75;;;25.94;nan
25759;BME280;13604;52.496;13.456;2023-07-29T10:55:24;100120.81;;;26.57;nan
25759;BME280;13604;52.496;13.456;2023-07-29T10:57:50;100136.22;;;27.34;nan
25759;BME280;13604;52.496;13.456;2023-07-29T11:02:38;100137.84;;;26.53;56.27
25759;BME280;13604;52.496;13.456;2023-07-29T11:05:07;100155.91;;;25.81;58.06
25759;BME280;13604;52.496;13.456;2023-07-29T11:10:08;100146.47;;;24.95;nan
25759;BME280;13604;52.496;13.456;2023-07-29T11:12:47;100132.31;;;24.56;nan
25759;BME280;13604;52.496;13.456;2023-07-29T11:15:20;100129.94;;;23.98;nan
25759;BME280;13604;52.496;13.456;2023-07-29T11:17:48;100153.75;;;24.03;nan
25759;BME280;13604;52.496;13.456;2023-07-29T11:20:15;100184.28;;;23.82;nan
25759;BME280;13604;52.496;13.456;2023-07-29T11:22:40;100220.06;;;23.02;nan
25759;BME280;13604;52.496;13.456;2023-07-29T11:25:11;100260.75;;;21.18;nan
25759;BME280;13604;52.496;13.456;2023-07-29T11:27:37;100243.50;;;20.16;nan
25759;BME280;13604;52.496;13.456;2023-07-29T11:30:08;100197.75;;;19.28;nan
25759;BME280;13604;52.496;13.456;2023-07-29T11:32:34;100187.06;;;18.79;nan
25759;BME280;13604;52.496;13.456;2023-07-29T11:35:08;100173.00;;;18.70;nan
25759;BME280;13604;52.496;13.456;2023-07-29T11:37:35;100136.03;;;18.60;nan
25759;BME280;13604;52.496;13.456;2023-07-29T11:40:00;100184.53;;;19.02;nan
25759;BME280;13604;52.496;13.456;2023-07-29T11:42:27;100180.91;;;18.81;nan
25759;BME280;13604;52.496;13.456;2023-07-29T11:44:53;100158.88;;;18.56;nan
25759;BME280;13604;52.496;13.456;2023-07-29T11:47:18;100176.50;;;18.75;nan
25759;BME280;13604;52.496;13.456;2023-07-29T11:49:44;100191.56;;;18.98;nan
25759;BME280;13604;52.496;13.456;2023-07-29T11:52:10;100187.19;;;19.22;nan
25759;BME280;13604;52.496;13.456;2023-07-29T11:54:39;100183.69;;;19.49;nan
25759;BME280;13604;52.496;13.456;2023-07-29T11:57:08;100181.03;;;19.67;nan
25759;BME280;13604;52.496;13.456;2023-07-29T11:59:35;100172.22;;;19.78;nan
25759;BME280;13604;52.496;13.456;2023-07-29T12:02:36;100166.06;;;19.77;100.00
25759;BME280;13604;52.496;13.456;2023-07-29T12:05:03;100136.97;;;19.71;100.00
25759;BME280;13604;52.496;13.456;2023-07-29T12:22:24;100139.69;;;19.26;nan
25759;BME280;13604;52.496;13.456;2023-07-29T12:24:51;100180.16;;;19.39;nan
25759;BME280;13604;52.496;13.456;2023-07-29T12:27:17;100144.94;;;19.19;nan
25759;BME280;13604;52.496;13.456;2023-07-29T12:29:43;100163.41;;;19.36;nan
25759;BME280;13604;52.496;13.456;2023-07-29T12:32:09;100171.34;;;19.53;nan
25759;BME280;13604;52.496;13.456;2023-07-29T12:34:37;100175.72;;;19.58;nan
25759;BME280;13604;52.496;13.456;2023-07-29T12:37:05;100169.59;;;19.65;nan
25759;BME280;13604;52.496;13.456;2023-07-29T12:39:32;100174.84;;;19.72;nan
25759;BME280;13604;52.496;13.456;2023-07-29T12:41:59;100183.59;;;20.09;nan
25759;BME280;13604;52.496;13.456;2023-07-29T12:44:29;100171.03;;;20.76;nan
25759;BME280;13604;52.496;13.456;2023-07-29T12:46:54;100166.06;;;21.54;nan
25759;BME280;13604;52.496;13.456;2023-07-29T12:49:19;100160.09;;;22.17;nan
25759;BME280;13604;52.496;13.456;2023-07-29T12:51:45;100168.00;;;24.00;nan
25759;BME280;13604;52.496;13.456;2023-07-29T12:54:10;100152.34;;;25.46;nan
25759;BME280;13604;52.496;13.456;2023-07-29T12:56:35;100149.00;;;28.96;nan
25759;BME280;13604;52.496;13.456;2023-07-29T13:13:33;100156.81;;;33.08;nan
25759;BME280;13604;52.496;13.456;2023-07-29T13:15:58;100159.81;;;30.79;nan
25759;BME280;13604;52.496;13.456;2023-07-29T13:18:24;100164.44;;;30.57;nan
25759;BME280;13604;52.496;13.456;2023-07-29T13:20:49;100163.00;;;30.10;nan
25759;BME280;13604;52.496;13.456;2023-07-29T13:23:15;100169.91;;;29.10;nan